Time;durP1;ratioP1;P1;durP2;ratioP2;P2;SDS_P1;SDS_P2;PMS_P1;PMS_P2;Temp;Humidity;BMP_temperature;BMP_pressure;BME280_temperature;BME280_humidity;BME280_pressure;Samples;Min_cycle;Max_cycle;Signal;HPM_P1;HPM_P2
2023/06/14 00:01:51;;;;;;;3.60;2.17;;;14.80;51.30;;;;;;5120541;27;20730;-78
2023/06/14 00:04:18;;;;;;;2.27;2.07;;;14.80;51.20;;;;;;5118939;27;20623;-77
2023/06/14 00:06:45;;;;;;;3.40;2.30;;;14.60;52.00;;;;;;5118637;27;20645;-77
2023/06/14 00:09:14;;;;;;;3.10;2.40;;;14.80;52.20;;;;;;5110326;27;20942;-77
2023/06/14 00:11:41;;;;;;;4.97;2.50;;;14.80;52.50;;;;;;5118630;27;21317;-77
2023/06/14 00:14:08;;;;;;;3.03;2.13;;;14.70;51.50;;;;;;5120437;27;20739;-77
2023/06/14 00:16:36;;;;;;;2.53;2.03;;;14.70;52.70;;;;;;5122086;27;20674;-77
2023/06/14 00:19:04;;;;;;;2.67;2.33;;;14.80;53.00;;;;;;5120100;27;20726;-77
2023/06/14 00:21:31;;;;;;;2.43;1.90;;;14.90;53.60;;;;;;5118280;27;21580;-77
2023/06/14 00:23:59;;;;;;;4.40;3.20;;;14.90;53.40;;;;;;5118341;27;20678;-77
2023/06/14 00:26:27;;;;;;;3.30;2.83;;;14.70;53.20;;;;;;5120933;27;20648;-77
2023/06/14 00:28:54;;;;;;;3.43;2.40;;;14.80;52.70;;;;;;5121609;27;20654;-77
2023/06/14 00:31:21;;;;;;;3.70;2.37;;;14.80;52.60;;;;;;5119845;27;20706;-78
2023/06/14 00:33:47;;;;;;;2.17;1.83;;;14.70;52.90;;;;;;5118338;27;20806;-77
2023/06/14 00:36:15;;;;;;;3.60;2.40;;;14.60;52.80;;;;;;5118056;27;20670;-78
2023/06/14 00:38:42;;;;;;;3.80;2.03;;;14.40;53.40;;;;;;5121336;27;20631;-77
2023/06/14 00:41:09;;;;;;;3.80;2.43;;;14.50;53.80;;;;;;5119645;27;20652;-77
2023/06/14 00:43:37;;;;;;;2.23;2.10;;;14.60;53.00;;;;;;5120204;27;20615;-77
2023/06/14 00:46:03;;;;;;;2.50;2.20;;;14.60;53.40;;;;;;5121416;27;20660;-77
2023/06/14 00:48:31;;;;;;;2.13;1.90;;;14.60;53.60;;;;;;5120650;27;20634;-78
2023/06/14 00:51:00;;;;;;;3.40;3.00;;;14.50;53.70;;;;;;5117301;27;20755;-77
2023/06/14 00:53:27;;;;;;;2.87;2.53;;;14.40;53.70;;;;;;5117268;27;21267;-77
2023/06/14 00:55:54;;;;;;;2.73;2.50;;;14.30;53.40;;;;;;5120048;27;20675;-77
2023/06/14 00:58:23;;;;;;;2.73;2.10;;;14.20;53.90;;;;;;5121209;27;21206;-78
2023/06/14 01:00:52;;;;;;;4.30;3.27;;;14.00;53.50;;;;;;5118956;27;20647;-78
2023/06/14 01:03:21;;;;;;;3.10;2.80;;;14.00;54.00;;;;;;5120550;27;21171;-78
2023/06/14 01:05:48;;;;;;;3.10;2.80;;;14.10;54.00;;;;;;5118150;27;20651;-77
2023/06/14 01:08:25;;;;;;;5.20;3.00;;;14.10;54.50;;;;;;5116440;27;20612;-77
2023/06/14 01:11:00;;;;;;;3.83;2.60;;;14.10;54.50;;;;;;5117282;27;21093;-78
2023/06/14 01:13:31;;;;;;;3.50;2.53;;;14.00;55.30;;;;;;5121172;27;20725;-78
2023/06/14 01:16:00;;;;;;;4.23;3.30;;;14.00;55.50;;;;;;5119520;27;20673;-78
2023/06/14 01:18:30;;;;;;;5.77;3.87;;;14.00;54.20;;;;;;5117402;27;21200;-78
2023/06/14 01:20:57;;;;;;;4.13;3.00;;;14.10;53.70;;;;;;5116754;27;20643;-78
2023/06/14 01:23:32;;;;;;;4.10;3.03;;;14.00;54.60;;;;;;5120728;27;20610;-78
2023/06/14 01:26:03;;;;;;;3.13;2.80;;;13.90;54.10;;;;;;5120343;27;20638;-78
2023/06/14 01:28:33;;;;;;;3.43;2.90;;;13.90;53.70;;;;;;5108645;27;20739;-78
2023/06/14 01:31:03;;;;;;;2.70;2.50;;;13.90;54.10;;;;;;5115647;27;20659;-78
2023/06/14 01:33:33;;;;;;;3.53;2.87;;;13.90;54.70;;;;;;5120296;27;20962;-77
2023/06/14 01:36:02;;;;;;;3.47;3.17;;;13.80;54.40;;;;;;5120166;27;20665;-78
2023/06/14 01:38:33;;;;;;;2.90;2.70;;;13.70;54.40;;;;;;5118100;27;21437;-78
2023/06/14 01:41:02;;;;;;;4.17;2.83;;;13.70;54.60;;;;;;5116299;27;20644;-77
2023/06/14 01:43:31;;;;;;;4.37;3.13;;;13.60;54.40;;;;;;5117921;27;20627;-77
2023/06/14 01:46:00;;;;;;;2.83;2.57;;;13.60;54.60;;;;;;5120295;27;20632;-78
2023/06/14 01:48:28;;;;;;;4.23;3.57;;;13.50;55.00;;;;;;5120087;27;21051;-78
2023/06/14 01:50:56;;;;;;;2.90;2.60;;;13.40;55.00;;;;;;5116516;27;20659;-77
2023/06/14 01:53:23;;;;;;;2.63;2.27;;;13.40;55.70;;;;;;5115640;27;20721;-77
2023/06/14 01:55:54;;;;;;;3.50;2.93;;;13.50;55.50;;;;;;5119267;27;20674;-77
2023/06/14 01:58:23;;;;;;;3.30;2.73;;;13.40;56.50;;;;;;5120078;27;20712;-78
2023/06/14 02:00:55;;;;;;;3.57;3.20;;;13.50;56.90;;;;;;5118570;27;20655;-78
2023/06/14 02:03:23;;;;;;;3.53;2.77;;;13.50;57.20;;;;;;5119954;27;20732;-78
2023/06/14 02:05:51;;;;;;;3.23;2.90;;;13.40;57.70;;;;;;5118477;27;20687;-77
2023/06/14 02:08:18;;;;;;;8.57;2.50;;;13.30;58.20;;;;;;5116484;27;20678;-78
2023/06/14 02:10:44;;;;;;;3.77;3.40;;;13.40;57.40;;;;;;5115196;27;20732;-78
2023/06/14 02:13:13;;;;;;;5.07;3.17;;;13.30;55.70;;;;;;5108135;27;20808;-78
2023/06/14 02:15:40;;;;;;;2.87;2.67;;;13.30;57.60;;;;;;5116791;27;21289;-78
2023/06/14 02:18:06;;;;;;;2.90;2.60;;;13.20;58.90;;;;;;5118430;27;20621;-78
2023/06/14 02:20:34;;;;;;;3.83;3.00;;;13.10;60.30;;;;;;5119046;28;20642;-78
2023/06/14 02:23:01;;;;;;;2.30;1.87;;;13.10;60.00;;;;;;5119072;27;20983;-78
2023/06/14 02:25:29;;;;;;;2.10;1.80;;;13.00;59.80;;;;;;5115868;28;20654;-78
2023/06/14 02:27:56;;;;;;;6.13;2.70;;;12.90;60.40;;;;;;5116732;28;20618;-78
2023/06/14 02:30:25;;;;;;;3.80;2.50;;;13.00;61.20;;;;;;5117953;28;20664;-78
2023/06/14 02:32:53;;;;;;;4.93;2.70;;;13.10;61.30;;;;;;5119819;28;21060;-78
2023/06/14 02:35:22;;;;;;;3.20;2.90;;;13.10;61.50;;;;;;5117553;28;21061;-77
2023/06/14 02:37:51;;;;;;;2.90;2.53;;;13.00;63.40;;;;;;5116326;28;20624;-78
2023/06/14 02:40:17;;;;;;;3.60;3.07;;;13.00;64.20;;;;;;5117117;27;21078;-78
2023/06/14 02:42:46;;;;;;;3.10;2.13;;;13.00;64.20;;;;;;5126077;27;20726;-78
2023/06/14 02:45:13;;;;;;;2.50;2.30;;;13.00;64.60;;;;;;5120287;27;20668;-78
2023/06/14 02:47:42;;;;;;;5.23;3.10;;;13.00;63.70;;;;;;5122866;27;20633;-78
2023/06/14 02:50:10;;;;;;;3.40;3.10;;;13.00;61.00;;;;;;5122448;27;20699;-78
2023/06/14 02:52:38;;;;;;;3.43;3.17;;;13.00;59.20;;;;;;5120765;27;21168;-78
2023/06/14 02:55:06;;;;;;;2.80;2.60;;;13.00;59.20;;;;;;5109881;28;21218;-78
2023/06/14 02:57:33;;;;;;;2.70;2.17;;;13.00;63.30;;;;;;5120360;27;20757;-78
2023/06/14 03:00:00;;;;;;;2.73;2.53;;;12.90;64.50;;;;;;5127496;27;20626;-77
2023/06/14 03:02:27;;;;;;;3.40;2.60;;;12.90;64.40;;;;;;5120089;27;20654;-78
2023/06/14 03:05:01;;;;;;;3.57;2.90;;;12.70;65.50;;;;;;5122485;27;20631;-78
2023/06/14 03:07:29;;;;;;;2.90;2.50;;;12.70;64.10;;;;;;5123108;27;20626;-78
2023/06/14 03:09:57;;;;;;;3.27;2.97;;;12.60;62.80;;;;;;5121127;27;21059;-78
2023/06/14 03:12:24;;;;;;;3.40;3.10;;;12.60;63.40;;;;;;5120018;27;20644;-78
2023/06/14 03:14:56;;;;;;;6.20;2.90;;;12.70;63.30;;;;;;5120601;27;21265;-78
2023/06/14 03:17:24;;;;;;;3.67;2.73;;;12.70;62.60;;;;;;5122221;27;21225;-78
2023/06/14 03:19:51;;;;;;;4.13;3.00;;;12.70;61.90;;;;;;5122823;27;21190;-78
2023/06/14 03:22:19;;;;;;;2.30;2.10;;;12.70;61.70;;;;;;5119720;27;21053;-77
2023/06/14 03:24:47;;;;;;;5.23;2.70;;;12.70;65.60;;;;;;5119545;27;20623;-78
2023/06/14 03:27:14;;;;;;;3.07;2.83;;;12.60;66.90;;;;;;5120924;27;20650;-78
2023/06/14 03:29:40;;;;;;;6.17;3.13;;;12.50;67.40;;;;;;5122105;27;20686;-78
2023/06/14 03:32:08;;;;;;;3.53;2.83;;;12.40;65.50;;;;;;5122235;27;20648;-78
2023/06/14 03:34:35;;;;;;;5.03;3.10;;;12.30;65.20;;;;;;5119510;27;21313;-78
2023/06/14 03:37:02;;;;;;;4.80;3.00;;;12.30;65.70;;;;;;5119019;27;20786;-78
2023/06/14 03:39:30;;;;;;;4.63;2.40;;;12.30;65.90;;;;;;5120841;27;20675;-78
2023/06/14 03:41:57;;;;;;;3.63;2.83;;;12.40;65.20;;;;;;5122370;27;20656;-78
2023/06/14 03:44:23;;;;;;;3.00;2.67;;;12.40;65.50;;;;;;5121117;27;20728;-77
2023/06/14 03:46:51;;;;;;;3.70;2.70;;;12.40;65.60;;;;;;5118997;27;20723;-78
2023/06/14 03:49:18;;;;;;;3.77;2.97;;;12.50;65.70;;;;;;5119029;27;20665;-77
2023/06/14 03:51:50;;;;;;;2.70;2.40;;;12.40;64.40;;;;;;5120285;27;20650;-78
2023/06/14 03:54:17;;;;;;;2.10;1.80;;;12.50;65.80;;;;;;5122256;27;20668;-78
2023/06/14 03:56:45;;;;;;;3.67;2.83;;;12.40;64.90;;;;;;5119985;27;20668;-77
2023/06/14 03:59:12;;;;;;;6.53;2.20;;;12.60;65.90;;;;;;5122966;27;20966;-78
2023/06/14 04:01:45;;;;;;;4.27;3.13;;;12.50;67.50;;;;;;5121568;27;20658;-78
2023/06/14 04:04:12;;;;;;;5.30;2.60;;;12.50;68.00;;;;;;5119062;27;20626;-78
2023/06/14 04:06:41;;;;;;;4.70;3.37;;;12.50;66.70;;;;;;5118513;27;20650;-78
2023/06/14 04:09:07;;;;;;;4.23;2.70;;;12.50;66.10;;;;;;5109821;27;20666;-78
2023/06/14 04:11:34;;;;;;;2.17;2.07;;;12.50;66.20;;;;;;5118050;27;20764;-77
2023/06/14 04:14:03;;;;;;;3.07;2.77;;;12.50;65.60;;;;;;5121119;27;20638;-80
2023/06/14 04:16:30;;;;;;;2.93;2.70;;;12.60;64.80;;;;;;5121602;27;20771;-80
2023/06/14 04:18:57;;;;;;;4.07;2.87;;;12.60;64.10;;;;;;5121135;27;20724;-80
2023/06/14 04:21:25;;;;;;;2.93;2.70;;;12.70;65.30;;;;;;5118664;27;20654;-79
2023/06/14 04:23:54;;;;;;;2.90;2.60;;;12.70;64.30;;;;;;5117787;27;20781;-80
2023/06/14 04:26:23;;;;;;;3.83;2.70;;;12.70;64.50;;;;;;5121481;27;20698;-81
2023/06/14 04:28:50;;;;;;;2.80;2.20;;;12.80;65.40;;;;;;5121680;27;20656;-78
2023/06/14 04:31:18;;;;;;;4.47;2.60;;;12.80;66.10;;;;;;5119618;27;20666;-77
2023/06/14 04:33:46;;;;;;;3.77;2.53;;;12.90;64.50;;;;;;5118400;27;21019;-77
2023/06/14 04:36:13;;;;;;;4.13;3.65;;;13.10;63.30;;;;;;5117541;27;21196;-76
2023/06/14 04:38:41;;;;;;;3.53;2.63;;;13.20;62.50;;;;;;5120669;27;20198;-76
2023/06/14 04:41:11;;;;;;;3.00;2.57;;;13.30;61.90;;;;;;5118258;27;20685;-76
2023/06/14 04:43:38;;;;;;;2.83;1.97;;;13.40;63.00;;;;;;5120902;27;20641;-76
2023/06/14 04:46:10;;;;;;;2.90;2.63;;;13.40;62.30;;;;;;5120503;27;20649;-76
2023/06/14 04:48:42;;;;;;;2.80;2.60;;;13.50;62.30;;;;;;5119509;27;20671;-76
2023/06/14 04:51:09;;;;;;;5.87;2.47;;;13.50;61.40;;;;;;5117099;27;21012;-76
2023/06/14 04:53:36;;;;;;;3.60;2.23;;;13.60;60.30;;;;;;5119409;27;20630;-76
2023/06/14 04:56:04;;;;;;;3.67;2.80;;;13.70;60.80;;;;;;5120863;27;20652;-76
2023/06/14 04:58:31;;;;;;;5.90;2.70;;;13.80;59.70;;;;;;5120849;27;20713;-76
2023/06/14 05:00:59;;;;;;;2.50;2.30;;;13.90;60.10;;;;;;5108837;27;20694;-76
2023/06/14 05:03:26;;;;;;;3.30;2.40;;;13.90;61.10;;;;;;5116746;27;20615;-76
2023/06/14 05:05:54;;;;;;;4.00;3.13;;;14.00;59.90;;;;;;5119285;27;20658;-76
2023/06/14 05:08:23;;;;;;;4.40;2.80;;;14.10;60.90;;;;;;5121073;27;20664;-76
2023/06/14 05:10:50;;;;;;;2.33;2.13;;;14.20;61.60;;;;;;5118952;27;20653;-76
2023/06/14 05:13:17;;;;;;;4.57;3.40;;;14.40;60.90;;;;;;5117480;27;20615;-76
2023/06/14 05:15:44;;;;;;;2.60;2.40;;;14.50;60.10;;;;;;5117425;27;20643;-77
2023/06/14 05:18:11;;;;;;;4.20;3.13;;;14.60;60.60;;;;;;5119847;27;20662;-76
2023/06/14 05:20:38;;;;;;;4.50;2.90;;;14.80;59.20;;;;;;5119692;27;21313;-76
2023/06/14 05:23:06;;;;;;;3.40;3.10;;;14.90;59.30;;;;;;5119455;27;20637;-77
2023/06/14 05:25:32;;;;;;;3.53;2.90;;;14.90;59.20;;;;;;5116864;27;20644;-76
2023/06/14 05:27:59;;;;;;;2.77;2.57;;;14.90;59.20;;;;;;5117437;27;20727;-77
2023/06/14 05:30:26;;;;;;;2.77;2.50;;;14.90;58.40;;;;;;5108342;27;20659;-77
2023/06/14 05:32:54;;;;;;;3.27;2.70;;;14.90;58.40;;;;;;5116675;27;20660;-76
2023/06/14 05:35:23;;;;;;;3.37;3.07;;;15.00;58.80;;;;;;5118962;27;20727;-77
2023/06/14 05:37:50;;;;;;;3.60;2.90;;;15.10;58.50;;;;;;5120350;27;21163;-76
2023/06/14 05:40:18;;;;;;;2.57;2.30;;;15.10;58.30;;;;;;5118900;27;20970;-76
2023/06/14 05:42:45;;;;;;;3.50;3.20;;;15.10;57.80;;;;;;5117142;27;21184;-77
2023/06/14 05:45:11;;;;;;;4.60;3.00;;;15.10;57.20;;;;;;5116414;27;20715;-76
2023/06/14 05:47:38;;;;;;;2.53;2.30;;;15.20;57.00;;;;;;5119120;27;21256;-77
2023/06/14 05:50:06;;;;;;;3.10;2.80;;;15.30;57.10;;;;;;5119447;27;20625;-76
2023/06/14 05:52:33;;;;;;;4.43;3.23;;;15.30;56.60;;;;;;5118981;27;21219;-76
2023/06/14 05:55:01;;;;;;;4.03;3.10;;;15.40;56.40;;;;;;5116931;27;20716;-76
2023/06/14 05:57:29;;;;;;;5.83;3.80;;;15.50;56.60;;;;;;5116334;27;21219;-76
2023/06/14 05:59:56;;;;;;;3.33;2.37;;;15.60;56.70;;;;;;5107741;27;20685;-76
2023/06/14 06:02:22;;;;;;;3.03;2.40;;;15.60;55.80;;;;;;5116679;27;20648;-77
2023/06/14 06:04:49;;;;;;;3.97;3.67;;;15.70;56.00;;;;;;5118486;27;20632;-77
2023/06/14 06:07:16;;;;;;;3.57;2.90;;;15.80;56.30;;;;;;5119798;27;20651;-77
2023/06/14 06:09:43;;;;;;;3.90;3.00;;;15.90;56.50;;;;;;5119619;27;20744;-77
2023/06/14 06:12:10;;;;;;;3.20;2.90;;;16.00;56.50;;;;;;5116001;27;20637;-75
2023/06/14 06:14:38;;;;;;;3.10;2.80;;;16.20;56.20;;;;;;5116009;27;20624;-77
2023/06/14 06:17:06;;;;;;;3.80;2.90;;;16.30;56.40;;;;;;5118464;27;20661;-76
2023/06/14 06:19:33;;;;;;;2.90;2.70;;;16.30;56.00;;;;;;5119405;27;20624;-77
2023/06/14 06:21:59;;;;;;;2.83;2.63;;;16.40;55.70;;;;;;5119051;28;21007;-77
2023/06/14 06:24:26;;;;;;;2.83;2.63;;;16.40;54.30;;;;;;5116221;28;20667;-77
2023/06/14 06:26:53;;;;;;;2.60;2.20;;;16.50;53.90;;;;;;5115809;28;20744;-76
2023/06/14 06:29:21;;;;;;;2.57;2.27;;;16.50;54.30;;;;;;5118239;28;21317;-78
2023/06/14 06:31:49;;;;;;;3.97;2.70;;;16.60;54.40;;;;;;5119531;28;21007;-76
2023/06/14 06:34:16;;;;;;;2.57;2.37;;;16.60;54.30;;;;;;5118891;28;20630;-76
2023/06/14 06:36:43;;;;;;;3.60;2.60;;;16.80;54.60;;;;;;5116017;27;20650;-76
2023/06/14 06:39:10;;;;;;;3.90;2.90;;;17.00;54.00;;;;;;5115821;28;20627;-77
2023/06/14 06:41:39;;;;;;;6.20;2.73;;;17.00;53.60;;;;;;5108635;28;20652;-76
2023/06/14 06:44:06;;;;;;;4.00;3.10;;;17.00;54.00;;;;;;5119849;27;20619;-77
2023/06/14 06:46:33;;;;;;;4.43;2.73;;;17.10;54.50;;;;;;5117786;28;20646;-76
2023/06/14 06:49:01;;;;;;;4.97;3.27;;;17.20;52.90;;;;;;5115948;28;20726;-76
2023/06/14 06:51:28;;;;;;;2.47;2.27;;;17.30;53.00;;;;;;5117325;27;21234;-76
2023/06/14 06:53:55;;;;;;;2.90;2.57;;;17.50;53.40;;;;;;5119238;27;20617;-77
2023/06/14 06:56:23;;;;;;;3.17;2.87;;;17.50;52.60;;;;;;5119837;28;20742;-76
2023/06/14 06:58:49;;;;;;;3.00;2.73;;;17.40;52.30;;;;;;5118751;28;21079;-76
2023/06/14 07:01:16;;;;;;;2.83;2.57;;;17.60;53.00;;;;;;5119367;28;20653;-76
2023/06/14 07:03:43;;;;;;;2.83;2.53;;;18.00;53.10;;;;;;5118588;28;20618;-76
2023/06/14 07:06:11;;;;;;;2.60;2.40;;;18.30;52.30;;;;;;5116207;28;20652;-77
2023/06/14 07:08:39;;;;;;;3.70;3.30;;;18.30;51.50;;;;;;5115773;28;20719;-77
2023/06/14 07:11:06;;;;;;;2.80;2.53;;;18.30;52.20;;;;;;5106861;28;21042;-76
2023/06/14 07:13:33;;;;;;;2.80;2.60;;;18.20;51.70;;;;;;5116283;28;20619;-76
2023/06/14 07:16:00;;;;;;;3.80;3.10;;;18.20;52.10;;;;;;5117739;28;20636;-76
2023/06/14 07:18:28;;;;;;;3.30;2.57;;;18.20;51.90;;;;;;5119626;27;20657;-77
2023/06/14 07:20:55;;;;;;;2.80;2.60;;;18.20;53.00;;;;;;5118092;28;20970;-76
2023/06/14 07:23:23;;;;;;;3.33;3.03;;;18.20;52.70;;;;;;5115889;28;20630;-76
2023/06/14 07:25:50;;;;;;;3.00;2.80;;;18.60;52.60;;;;;;5116158;28;20650;-77
2023/06/14 07:28:17;;;;;;;4.60;2.80;;;18.70;52.60;;;;;;5122515;27;20616;-77
2023/06/14 07:30:44;;;;;;;3.70;2.90;;;18.80;51.80;;;;;;5122399;27;20696;-77
2023/06/14 07:33:12;;;;;;;3.40;3.10;;;18.60;51.70;;;;;;5122033;27;20634;-76
2023/06/14 07:35:39;;;;;;;2.73;2.53;;;18.70;51.20;;;;;;5118827;27;20746;-76
2023/06/14 07:38:05;;;;;;;3.07;2.77;;;18.90;51.70;;;;;;5119759;27;21012;-76
2023/06/14 07:40:33;;;;;;;5.47;3.03;;;19.20;50.90;;;;;;5118555;27;20992;-76
2023/06/14 07:43:09;;;;;;;4.43;3.00;;;19.30;50.40;;;;;;5108257;27;20620;-75
2023/06/14 07:45:36;;;;;;;2.30;2.13;;;19.40;50.90;;;;;;5107240;27;20654;-74
2023/06/14 07:48:04;;;;;;;3.60;3.30;;;19.30;51.10;;;;;;5102587;27;20983;-76
2023/06/14 07:50:30;;;;;;;3.03;2.83;;;19.90;50.30;;;;;;5102151;28;20650;-76
2023/06/14 07:52:58;;;;;;;2.60;2.07;;;20.00;50.00;;;;;;5106800;27;20627;-74
2023/06/14 07:58:52;;;;;;;4.27;3.87;;;20.30;48.80;;;;;;5089469;27;20810;-76
2023/06/14 08:01:20;;;;;;;3.17;2.77;;;20.00;49.50;;;;;;5102191;27;20656;-74
2023/06/14 08:03:56;;;;;;;2.90;2.70;;;20.00;49.70;;;;;;5105922;27;21268;-75
2023/06/14 08:06:39;;;;;;;3.73;3.17;;;20.20;49.30;;;;;;5107749;27;20635;-75
2023/06/14 08:09:13;;;;;;;3.60;2.90;;;20.40;49.30;;;;;;5104474;27;20700;-76
2023/06/14 08:11:45;;;;;;;4.17;2.70;;;20.50;48.90;;;;;;5104742;27;21027;-75
2023/06/14 08:17:20;;;;;;;2.97;2.67;;;20.00;48.40;;;;;;5048580;28;20674;-76
2023/06/14 08:20:27;;;;;;;3.30;3.00;;;20.30;49.70;;;;;;5102873;27;20685;-75
2023/06/14 08:23:07;;;;;;;2.70;2.50;;;20.40;49.40;;;;;;5094742;27;20628;-75
2023/06/14 08:25:55;;;;;;;3.50;3.03;;;20.70;49.00;;;;;;5108738;27;20643;-76
2023/06/14 08:28:24;;;;;;;3.47;3.20;;;20.90;49.00;;;;;;5110778;27;20620;-75
2023/06/14 08:30:52;;;;;;;3.80;3.00;;;20.80;48.50;;;;;;5110841;27;20707;-75
2023/06/14 08:33:19;;;;;;;3.20;2.90;;;20.70;49.00;;;;;;5119614;27;20738;-75
2023/06/14 08:35:46;;;;;;;3.73;3.10;;;21.00;49.60;;;;;;5118373;27;20648;-75
2023/06/14 08:38:13;;;;;;;3.67;3.37;;;21.20;49.20;;;;;;5116505;27;21309;-74
2023/06/14 08:40:42;;;;;;;3.53;3.27;;;21.60;48.50;;;;;;5120968;27;20702;-75
2023/06/14 08:43:09;;;;;;;5.03;3.67;;;22.00;47.30;;;;;;5120086;27;20624;-75
2023/06/14 08:45:36;;;;;;;3.60;3.30;;;22.00;48.30;;;;;;5118978;27;20651;-75
2023/06/14 08:48:05;;;;;;;4.87;4.47;;;22.10;48.50;;;;;;5121423;27;21047;-75
2023/06/14 08:50:33;;;;;;;4.00;3.60;;;22.40;47.40;;;;;;5119963;27;20659;-75
2023/06/14 08:53:02;;;;;;;3.40;3.10;;;22.50;47.00;;;;;;5118163;27;20624;-75
2023/06/14 08:55:30;;;;;;;3.90;3.50;;;22.30;48.60;;;;;;5117867;27;20648;-75
2023/06/14 08:57:58;;;;;;;4.27;3.87;;;22.50;47.50;;;;;;5121146;27;20662;-75
2023/06/14 09:00:26;;;;;;;3.10;2.87;;;22.60;46.90;;;;;;5120836;27;20658;-75
2023/06/14 09:02:57;;;;;;;3.93;3.63;;;22.20;47.80;;;;;;5120634;27;20720;-75
2023/06/14 09:05:26;;;;;;;3.50;3.20;;;22.30;48.40;;;;;;5120153;27;20646;-75
2023/06/14 09:07:54;;;;;;;4.40;3.83;;;22.50;47.90;;;;;;5119249;27;20672;-76
2023/06/14 09:10:25;;;;;;;3.53;3.33;;;22.10;48.20;;;;;;5105229;27;20637;-75
2023/06/14 09:12:52;;;;;;;4.10;3.80;;;22.30;47.90;;;;;;5120655;27;20665;-75
2023/06/14 09:15:20;;;;;;;4.00;3.70;;;22.20;48.70;;;;;;5116997;27;20626;-75
2023/06/14 09:17:47;;;;;;;3.63;3.33;;;22.50;46.60;;;;;;5111756;27;20743;-76
2023/06/14 09:20:17;;;;;;;4.20;3.80;;;22.60;48.40;;;;;;5108747;27;20630;-76
2023/06/14 09:22:45;;;;;;;3.07;2.87;;;22.70;47.90;;;;;;5113578;27;20643;-75
2023/06/14 09:25:15;;;;;;;3.37;3.10;;;22.70;46.90;;;;;;5108048;27;20628;-76
2023/06/14 09:27:42;;;;;;;3.27;2.97;;;22.50;48.40;;;;;;5113549;27;20726;-76
2023/06/14 09:30:11;;;;;;;3.13;2.93;;;23.00;46.60;;;;;;5114919;27;20625;-76
2023/06/14 09:32:39;;;;;;;4.00;3.23;;;23.30;46.20;;;;;;5111649;27;20801;-76
2023/06/14 09:35:07;;;;;;;3.57;3.27;;;23.40;47.10;;;;;;5114008;27;20619;-76
2023/06/14 09:37:35;;;;;;;4.03;3.70;;;23.60;46.20;;;;;;5122893;27;20978;-76
2023/06/14 09:40:06;;;;;;;4.23;3.93;;;23.20;46.40;;;;;;5116484;27;20975;-76
2023/06/14 09:42:35;;;;;;;3.77;3.00;;;23.60;45.00;;;;;;5121936;27;20677;-75
2023/06/14 09:45:04;;;;;;;4.97;3.33;;;23.90;44.90;;;;;;5116332;27;20616;-75
2023/06/14 09:47:31;;;;;;;4.23;3.47;;;24.00;44.40;;;;;;5116060;27;20627;-76
2023/06/14 09:50:00;;;;;;;3.93;3.47;;;23.90;44.80;;;;;;5110078;27;21047;-76
2023/06/14 09:52:28;;;;;;;4.27;3.70;;;23.90;43.70;;;;;;5104634;27;20672;-76
2023/06/14 09:54:56;;;;;;;5.83;3.20;;;24.10;44.90;;;;;;5119906;27;20650;-76
2023/06/14 09:57:26;;;;;;;4.43;3.57;;;24.30;43.20;;;;;;5118993;27;20651;-75
2023/06/14 09:59:57;;;;;;;3.80;3.10;;;24.20;42.40;;;;;;5116540;27;20731;-76
2023/06/14 10:02:27;;;;;;;3.40;3.00;;;24.30;43.20;;;;;;5111273;27;20660;-76
2023/06/14 10:05:02;;;;;;;3.77;3.47;;;24.60;43.30;;;;;;5118852;27;20622;-75
2023/06/14 10:07:32;;;;;;;3.60;3.30;;;24.70;44.30;;;;;;5113527;27;20683;-76
2023/06/14 10:10:00;;;;;;;3.53;3.33;;;24.80;44.70;;;;;;5103144;27;20637;-76
2023/06/14 10:12:28;;;;;;;4.50;3.97;;;24.30;43.60;;;;;;5109307;27;21151;-75
2023/06/14 10:14:57;;;;;;;3.53;3.23;;;24.10;42.10;;;;;;5114940;27;20628;-76
2023/06/14 10:17:30;;;;;;;3.83;3.10;;;24.40;42.10;;;;;;5112253;27;20711;-75
2023/06/14 10:20:07;;;;;;;3.93;3.53;;;24.60;43.10;;;;;;5118654;27;20766;-76
2023/06/14 10:22:40;;;;;;;3.93;3.60;;;24.60;42.60;;;;;;5112884;27;20621;-76
2023/06/14 10:25:11;;;;;;;4.07;3.70;;;24.40;41.80;;;;;;5117228;27;20618;-75
2023/06/14 10:27:40;;;;;;;3.63;3.33;;;24.00;43.30;;;;;;5119743;28;20746;-76
2023/06/14 10:30:10;;;;;;;3.50;3.20;;;24.40;43.60;;;;;;5118096;28;20999;-76
2023/06/14 10:32:56;;;;;;;3.50;3.20;;;24.60;44.40;;;;;;5116187;28;20620;-75
2023/06/14 10:35:23;;;;;;;4.23;3.93;;;25.00;43.10;;;;;;5117613;28;20652;-76
2023/06/14 10:37:50;;;;;;;3.63;3.33;;;25.10;43.30;;;;;;5119095;28;20634;-76
2023/06/14 10:40:31;;;;;;;3.93;3.57;;;25.20;43.90;;;;;;5116967;28;21192;-76
2023/06/14 10:42:59;;;;;;;4.10;3.67;;;25.00;42.80;;;;;;5115217;28;21187;-76
2023/06/14 10:45:26;;;;;;;5.30;3.43;;;24.90;43.90;;;;;;5116598;28;20656;-76
2023/06/14 10:47:53;;;;;;;4.80;3.80;;;24.90;44.20;;;;;;5119183;28;20630;-75
2023/06/14 10:50:29;;;;;;;3.50;3.23;;;24.70;43.60;;;;;;5118854;28;20634;-76
2023/06/14 10:52:56;;;;;;;3.10;2.80;;;24.10;43.50;;;;;;5109298;28;20661;-76
2023/06/14 10:55:24;;;;;;;3.23;2.87;;;23.80;44.60;;;;;;5114732;28;20626;-76
2023/06/14 10:57:55;;;;;;;3.87;3.57;;;24.40;44.70;;;;;;5117972;28;20627;-76
2023/06/14 11:00:26;;;;;;;3.60;3.30;;;24.80;44.20;;;;;;5119995;28;20676;-76
2023/06/14 11:03:13;;;;;;;4.30;3.30;;;24.80;43.00;;;;;;5121770;27;20627;-75
2023/06/14 11:05:52;;;;;;;3.60;3.30;;;25.00;43.10;;;;;;5123235;27;20661;-75
2023/06/14 11:09:08;;;;;;;3.60;3.30;;;24.90;43.40;;;;;;5119315;27;20612;-76
2023/06/14 11:11:38;;;;;;;3.87;3.60;;;24.80;42.50;;;;;;5115392;27;20639;-76
2023/06/14 11:14:05;;;;;;;4.70;3.67;;;25.30;43.50;;;;;;5121703;27;20690;-76
2023/06/14 11:16:34;;;;;;;3.83;3.53;;;25.60;42.10;;;;;;5122262;27;21119;-76
2023/06/14 11:19:03;;;;;;;3.93;3.53;;;25.80;41.70;;;;;;5120914;27;20654;-75
2023/06/14 11:21:31;;;;;;;3.50;3.20;;;26.20;40.40;;;;;;5120073;27;20648;-76
2023/06/14 11:23:58;;;;;;;3.57;3.20;;;26.50;40.60;;;;;;5119627;27;20642;-76
2023/06/14 11:26:29;;;;;;;3.97;3.67;;;26.60;40.90;;;;;;5119584;27;20635;-76
2023/06/14 11:29:00;;;;;;;3.23;3.03;;;27.20;38.80;;;;;;5121722;27;20629;-75
2023/06/14 11:31:27;;;;;;;3.80;3.57;;;27.50;39.00;;;;;;5110114;27;20663;-76
2023/06/14 11:33:56;;;;;;;3.60;3.30;;;28.00;38.10;;;;;;5119190;27;20614;-76
2023/06/14 11:36:23;;;;;;;3.70;3.33;;;28.10;37.20;;;;;;5121217;27;21233;-76
2023/06/14 11:38:51;;;;;;;3.77;3.43;;;28.20;38.10;;;;;;5122271;27;20673;-75
2023/06/14 11:41:18;;;;;;;4.13;3.83;;;28.80;35.80;;;;;;5119975;27;21010;-76
2023/06/14 11:43:44;;;;;;;3.20;2.90;;;29.20;37.10;;;;;;5122260;27;20625;-76
2023/06/14 11:46:16;;;;;;;4.57;4.17;;;29.00;38.40;;;;;;5120778;27;21157;-76
2023/06/14 11:48:45;;;;;;;3.00;2.80;;;29.30;36.50;;;;;;5119188;27;20631;-76
2023/06/14 11:51:13;;;;;;;4.27;3.40;;;29.10;37.40;;;;;;5118664;27;20640;-76
2023/06/14 11:53:40;;;;;;;2.70;2.50;;;29.70;36.90;;;;;;5120835;27;20638;-75
2023/06/14 11:56:07;;;;;;;3.07;2.80;;;29.60;35.80;;;;;;5121304;27;20639;-76
2023/06/14 11:58:34;;;;;;;3.13;2.93;;;29.40;35.10;;;;;;5121838;27;20627;-76
2023/06/14 12:01:01;;;;;;;3.40;3.17;;;28.90;36.20;;;;;;5121536;27;20655;-76
2023/06/14 12:03:29;;;;;;;3.00;2.80;;;29.20;37.10;;;;;;5122260;27;20612;-76
2023/06/14 12:06:07;;;;;;;3.30;3.00;;;29.00;35.80;;;;;;5119066;27;20749;-76
2023/06/14 12:08:42;;;;;;;3.43;3.17;;;28.90;36.00;;;;;;5116667;27;20666;-76
2023/06/14 12:11:13;;;;;;;3.40;2.87;;;28.60;35.40;;;;;;5110205;27;20657;-76
2023/06/14 12:13:40;;;;;;;3.20;3.00;;;28.90;36.60;;;;;;5118785;27;20632;-76
2023/06/14 12:16:08;;;;;;;3.37;3.07;;;30.10;34.30;;;;;;5120720;27;21281;-73
2023/06/14 12:18:36;;;;;;;2.93;2.73;;;31.10;33.40;;;;;;5113674;27;20957;-74
2023/06/14 12:21:06;;;;;;;3.33;2.67;;;31.70;34.10;;;;;;5114168;27;20662;-74
2023/06/14 12:23:47;;;;;;;3.23;2.93;;;32.00;34.00;;;;;;5122279;27;20655;-75
2023/06/14 12:26:16;;;;;;;3.30;3.00;;;31.50;33.00;;;;;;5119180;27;20735;-75
2023/06/14 12:28:43;;;;;;;3.60;2.73;;;31.50;33.00;;;;;;5122205;27;20626;-74
2023/06/14 12:31:11;;;;;;;3.97;3.67;;;31.00;33.80;;;;;;5120116;27;20651;-74
2023/06/14 12:33:38;;;;;;;3.33;3.13;;;31.70;35.30;;;;;;5117937;27;20731;-74
2023/06/14 12:36:06;;;;;;;2.37;2.20;;;33.10;32.40;;;;;;5117849;27;20652;-75
2023/06/14 12:38:33;;;;;;;3.83;2.90;;;33.70;31.70;;;;;;5121208;27;20620;-75
2023/06/14 12:41:01;;;;;;;3.20;3.00;;;33.90;30.50;;;;;;5120567;27;20661;-75
2023/06/14 12:43:28;;;;;;;4.30;4.00;;;33.30;31.80;;;;;;5119842;27;20969;-75
2023/06/14 12:45:55;;;;;;;3.70;3.40;;;32.00;31.30;;;;;;5120275;27;20643;-75
2023/06/14 12:48:22;;;;;;;3.20;3.00;;;31.00;31.70;;;;;;5111495;27;20624;-75
2023/06/14 12:50:49;;;;;;;3.20;3.00;;;31.40;32.40;;;;;;5120290;27;20644;-74
2023/06/14 12:53:16;;;;;;;3.40;3.10;;;32.50;32.60;;;;;;5106768;27;20655;-74
2023/06/14 12:55:43;;;;;;;2.83;2.63;;;33.50;30.70;;;;;;5110587;27;20751;-74
2023/06/14 12:58:13;;;;;;;3.10;2.90;;;32.60;31.10;;;;;;5120632;27;20620;-74
2023/06/14 13:00:40;;;;;;;3.70;3.40;;;32.60;33.00;;;;;;5117577;27;20702;-75
2023/06/14 13:03:07;;;;;;;2.97;2.77;;;30.50;32.30;;;;;;5120839;27;21262;-74